sensor_id;sensor_type;location;lat;lon;timestamp;temperature;humidity
770;DHT22;368;48.698;9.116;2023-07-24T00:01:00;18.70;99.90
770;DHT22;368;48.698;9.116;2023-07-24T00:03:27;18.90;99.90
770;DHT22;368;48.698;9.116;2023-07-24T00:05:57;18.90;99.70
770;DHT22;368;48.698;9.116;2023-07-24T00:08:24;18.90;99.30
770;DHT22;368;48.698;9.116;2023-07-24T00:10:53;19.10;98.10
770;DHT22;368;48.698;9.116;2023-07-24T00:13:19;19.00;99.10
770;DHT22;368;48.698;9.116;2023-07-24T00:15:46;19.10;97.50
770;DHT22;368;48.698;9.116;2023-07-24T00:18:13;19.30;97.80
770;DHT22;368;48.698;9.116;2023-07-24T00:20:40;19.20;99.90
770;DHT22;368;48.698;9.116;2023-07-24T00:23:07;18.70;99.90
770;DHT22;368;48.698;9.116;2023-07-24T00:25:33;18.30;99.90
770;DHT22;368;48.698;9.116;2023-07-24T00:28:02;18.30;99.90
770;DHT22;368;48.698;9.116;2023-07-24T00:30:29;18.40;99.90
770;DHT22;368;48.698;9.116;2023-07-24T00:32:55;18.50;99.90
770;DHT22;368;48.698;9.116;2023-07-24T00:35:22;18.40;99.90
770;DHT22;368;48.698;9.116;2023-07-24T00:37:49;18.10;99.90
770;DHT22;368;48.698;9.116;2023-07-24T00:40:16;18.00;99.90
770;DHT22;368;48.698;9.116;2023-07-24T00:42:46;17.90;99.90
770;DHT22;368;48.698;9.116;2023-07-24T00:45:15;17.80;99.90
770;DHT22;368;48.698;9.116;2023-07-24T00:47:42;17.80;99.90
770;DHT22;368;48.698;9.116;2023-07-24T00:50:11;17.80;99.90
770;DHT22;368;48.698;9.116;2023-07-24T00:52:38;17.70;99.90
770;DHT22;368;48.698;9.116;2023-07-24T00:55:06;17.80;99.90
770;DHT22;368;48.698;9.116;2023-07-24T00:57:33;17.80;99.90
770;DHT22;368;48.698;9.116;2023-07-24T01:00:00;17.80;99.90
770;DHT22;368;48.698;9.116;2023-07-24T01:02:30;17.80;99.90
770;DHT22;368;48.698;9.116;2023-07-24T01:04:57;17.80;99.90
770;DHT22;368;48.698;9.116;2023-07-24T01:07:25;17.70;99.90
770;DHT22;368;48.698;9.116;2023-07-24T01:09:51;17.70;99.90
770;DHT22;368;48.698;9.116;2023-07-24T01:12:22;17.60;99.90
770;DHT22;368;48.698;9.116;2023-07-24T01:14:52;17.60;99.90
770;DHT22;368;48.698;9.116;2023-07-24T01:17:24;17.50;99.90
770;DHT22;368;48.698;9.116;2023-07-24T01:19:55;17.40;99.90
770;DHT22;368;48.698;9.116;2023-07-24T01:22:32;17.50;99.90
770;DHT22;368;48.698;9.116;2023-07-24T01:25:06;17.40;99.90
770;DHT22;368;48.698;9.116;2023-07-24T01:27:41;17.20;99.90
770;DHT22;368;48.698;9.116;2023-07-24T01:30:08;17.20;99.90
770;DHT22;368;48.698;9.116;2023-07-24T01:32:36;17.20;99.90
770;DHT22;368;48.698;9.116;2023-07-24T01:35:03;17.10;99.90
770;DHT22;368;48.698;9.116;2023-07-24T01:37:31;17.00;99.90
770;DHT22;368;48.698;9.116;2023-07-24T01:39:58;16.90;99.90
770;DHT22;368;48.698;9.116;2023-07-24T01:42:26;16.90;99.90
770;DHT22;368;48.698;9.116;2023-07-24T01:44:55;16.90;99.90
770;DHT22;368;48.698;9.116;2023-07-24T01:47:22;16.70;99.90
770;DHT22;368;48.698;9.116;2023-07-24T01:49:49;16.60;99.90
770;DHT22;368;48.698;9.116;2023-07-24T01:52:16;16.60;99.90
770;DHT22;368;48.698;9.116;2023-07-24T01:54:42;16.50;99.90
770;DHT22;368;48.698;9.116;2023-07-24T01:57:09;16.60;99.90
770;DHT22;368;48.698;9.116;2023-07-24T01:59:36;16.70;99.90
770;DHT22;368;48.698;9.116;2023-07-24T02:02:04;16.70;99.90
770;DHT22;368;48.698;9.116;2023-07-24T02:04:31;16.70;99.90
770;DHT22;368;48.698;9.116;2023-07-24T02:06:58;16.60;99.90
770;DHT22;368;48.698;9.116;2023-07-24T02:09:25;16.70;99.90
770;DHT22;368;48.698;9.116;2023-07-24T02:11:51;16.70;99.90
770;DHT22;368;48.698;9.116;2023-07-24T02:14:19;16.70;99.90
770;DHT22;368;48.698;9.116;2023-07-24T02:16:46;16.60;99.90
770;DHT22;368;48.698;9.116;2023-07-24T02:19:14;16.70;99.90
770;DHT22;368;48.698;9.116;2023-07-24T02:21:41;16.60;99.90
770;DHT22;368;48.698;9.116;2023-07-24T02:24:08;16.50;99.90
770;DHT22;368;48.698;9.116;2023-07-24T02:26:35;16.40;99.90
770;DHT22;368;48.698;9.116;2023-07-24T02:29:01;16.30;99.90
770;DHT22;368;48.698;9.116;2023-07-24T02:31:28;16.20;99.90
770;DHT22;368;48.698;9.116;2023-07-24T02:33:55;16.10;99.90
770;DHT22;368;48.698;9.116;2023-07-24T02:36:23;16.10;99.90
770;DHT22;368;48.698;9.116;2023-07-24T02:38:50;16.00;99.90
770;DHT22;368;48.698;9.116;2023-07-24T02:41:17;15.90;99.90
770;DHT22;368;48.698;9.116;2023-07-24T02:43:44;15.90;99.90
770;DHT22;368;48.698;9.116;2023-07-24T02:46:11;15.90;99.90
770;DHT22;368;48.698;9.116;2023-07-24T02:48:38;15.90;99.90
770;DHT22;368;48.698;9.116;2023-07-24T02:51:04;15.80;99.90
770;DHT22;368;48.698;9.116;2023-07-24T02:53:32;15.70;99.90
770;DHT22;368;48.698;9.116;2023-07-24T02:56:01;15.80;99.90
770;DHT22;368;48.698;9.116;2023-07-24T02:58:27;15.80;99.90
770;DHT22;368;48.698;9.116;2023-07-24T03:00:54;15.70;99.90
770;DHT22;368;48.698;9.116;2023-07-24T03:03:28;15.60;99.90
770;DHT22;368;48.698;9.116;2023-07-24T03:05:55;15.50;99.90
770;DHT22;368;48.698;9.116;2023-07-24T03:08:22;15.40;99.90
770;DHT22;368;48.698;9.116;2023-07-24T03:10:50;15.40;99.90
770;DHT22;368;48.698;9.116;2023-07-24T03:13:17;15.40;99.90
770;DHT22;368;48.698;9.116;2023-07-24T03:15:44;15.40;99.90
770;DHT22;368;48.698;9.116;2023-07-24T03:18:11;15.40;99.90
770;DHT22;368;48.698;9.116;2023-07-24T03:20:38;15.40;99.90
770;DHT22;368;48.698;9.116;2023-07-24T03:23:04;15.30;99.90
770;DHT22;368;48.698;9.116;2023-07-24T03:25:31;15.30;99.90
770;DHT22;368;48.698;9.116;2023-07-24T03:28:02;15.20;99.90
770;DHT22;368;48.698;9.116;2023-07-24T03:30:29;15.20;99.90
770;DHT22;368;48.698;9.116;2023-07-24T03:32:56;15.20;99.90
770;DHT22;368;48.698;9.116;2023-07-24T03:35:23;15.10;99.90
770;DHT22;368;48.698;9.116;2023-07-24T03:37:50;15.10;99.90
770;DHT22;368;48.698;9.116;2023-07-24T03:40:17;15.20;99.90
770;DHT22;368;48.698;9.116;2023-07-24T03:42:44;15.20;99.90
770;DHT22;368;48.698;9.116;2023-07-24T03:45:12;15.20;99.90
770;DHT22;368;48.698;9.116;2023-07-24T03:47:39;15.40;99.90
770;DHT22;368;48.698;9.116;2023-07-24T03:50:06;15.30;99.90
770;DHT22;368;48.698;9.116;2023-07-24T03:52:33;15.30;99.90
770;DHT22;368;48.698;9.116;2023-07-24T03:55:01;15.20;99.90
770;DHT22;368;48.698;9.116;2023-07-24T03:57:28;15.30;99.90
770;DHT22;368;48.698;9.116;2023-07-24T03:59:55;15.30;99.90
770;DHT22;368;48.698;9.116;2023-07-24T04:02:23;15.50;99.90
770;DHT22;368;48.698;9.116;2023-07-24T04:04:50;15.70;99.90
770;DHT22;368;48.698;9.116;2023-07-24T04:07:17;15.80;99.90
770;DHT22;368;48.698;9.116;2023-07-24T04:09:43;15.60;99.90
770;DHT22;368;48.698;9.116;2023-07-24T04:12:10;16.00;99.90
770;DHT22;368;48.698;9.116;2023-07-24T04:14:37;16.00;99.90
770;DHT22;368;48.698;9.116;2023-07-24T04:17:04;16.10;99.90
770;DHT22;368;48.698;9.116;2023-07-24T04:19:33;16.10;99.90
770;DHT22;368;48.698;9.116;2023-07-24T04:21:59;16.10;99.90
770;DHT22;368;48.698;9.116;2023-07-24T04:24:26;16.10;99.90
770;DHT22;368;48.698;9.116;2023-07-24T04:26:53;16.10;99.90
770;DHT22;368;48.698;9.116;2023-07-24T04:29:20;16.00;99.90
770;DHT22;368;48.698;9.116;2023-07-24T04:31:49;16.20;99.90
770;DHT22;368;48.698;9.116;2023-07-24T04:34:16;16.30;99.90
770;DHT22;368;48.698;9.116;2023-07-24T04:36:44;16.40;99.90
770;DHT22;368;48.698;9.116;2023-07-24T04:39:11;16.60;99.90
770;DHT22;368;48.698;9.116;2023-07-24T04:41:38;16.60;99.90
770;DHT22;368;48.698;9.116;2023-07-24T04:44:05;16.60;99.90
770;DHT22;368;48.698;9.116;2023-07-24T04:46:31;16.50;99.90
770;DHT22;368;48.698;9.116;2023-07-24T04:48:58;16.60;99.90
770;DHT22;368;48.698;9.116;2023-07-24T04:51:25;16.50;99.90
770;DHT22;368;48.698;9.116;2023-07-24T04:53:53;16.50;99.90
770;DHT22;368;48.698;9.116;2023-07-24T04:56:20;16.50;99.90
770;DHT22;368;48.698;9.116;2023-07-24T04:58:47;16.60;99.90
770;DHT22;368;48.698;9.116;2023-07-24T05:01:13;16.70;99.90
770;DHT22;368;48.698;9.116;2023-07-24T05:03:40;16.90;99.90
770;DHT22;368;48.698;9.116;2023-07-24T05:06:07;16.80;99.90
770;DHT22;368;48.698;9.116;2023-07-24T05:08:34;16.70;99.90
770;DHT22;368;48.698;9.116;2023-07-24T05:11:03;16.60;99.90
770;DHT22;368;48.698;9.116;2023-07-24T05:13:29;16.70;99.90
770;DHT22;368;48.698;9.116;2023-07-24T05:15:56;16.80;99.90
770;DHT22;368;48.698;9.116;2023-07-24T05:18:23;16.90;99.90
770;DHT22;368;48.698;9.116;2023-07-24T05:20:50;17.10;99.90
770;DHT22;368;48.698;9.116;2023-07-24T05:23:17;17.10;99.90
770;DHT22;368;48.698;9.116;2023-07-24T05:25:44;17.20;99.90
770;DHT22;368;48.698;9.116;2023-07-24T05:28:12;17.40;99.90
770;DHT22;368;48.698;9.116;2023-07-24T05:30:39;17.30;99.90
770;DHT22;368;48.698;9.116;2023-07-24T05:33:06;17.30;99.90
770;DHT22;368;48.698;9.116;2023-07-24T05:35:32;17.40;99.90
770;DHT22;368;48.698;9.116;2023-07-24T05:37:59;17.60;99.90
770;DHT22;368;48.698;9.116;2023-07-24T05:40:26;17.70;99.90
770;DHT22;368;48.698;9.116;2023-07-24T05:42:54;17.50;99.90
770;DHT22;368;48.698;9.116;2023-07-24T05:45:22;17.50;99.90
770;DHT22;368;48.698;9.116;2023-07-24T05:47:48;17.70;99.90
770;DHT22;368;48.698;9.116;2023-07-24T05:50:15;17.80;99.90
770;DHT22;368;48.698;9.116;2023-07-24T05:52:42;17.80;99.90
770;DHT22;368;48.698;9.116;2023-07-24T05:55:09;17.90;99.90
770;DHT22;368;48.698;9.116;2023-07-24T05:57:36;17.80;99.90
770;DHT22;368;48.698;9.116;2023-07-24T06:00:04;17.70;99.90
770;DHT22;368;48.698;9.116;2023-07-24T06:02:32;17.80;99.90
770;DHT22;368;48.698;9.116;2023-07-24T06:04:59;17.90;99.90
770;DHT22;368;48.698;9.116;2023-07-24T06:07:26;18.00;99.90
770;DHT22;368;48.698;9.116;2023-07-24T06:09:52;18.00;99.90
770;DHT22;368;48.698;9.116;2023-07-24T06:12:19;18.00;99.90
770;DHT22;368;48.698;9.116;2023-07-24T06:14:46;18.10;99.90
770;DHT22;368;48.698;9.116;2023-07-24T06:17:13;18.10;99.90
770;DHT22;368;48.698;9.116;2023-07-24T06:19:41;18.10;99.90
770;DHT22;368;48.698;9.116;2023-07-24T06:22:08;18.30;99.90
770;DHT22;368;48.698;9.116;2023-07-24T06:24:34;18.40;99.90
770;DHT22;368;48.698;9.116;2023-07-24T06:27:01;18.50;99.90
770;DHT22;368;48.698;9.116;2023-07-24T06:29:28;18.40;99.90
770;DHT22;368;48.698;9.116;2023-07-24T06:31:55;18.50;99.90
770;DHT22;368;48.698;9.116;2023-07-24T06:34:21;18.60;99.90
770;DHT22;368;48.698;9.116;2023-07-24T06:36:50;18.70;99.90
770;DHT22;368;48.698;9.116;2023-07-24T06:39:16;18.90;99.90
770;DHT22;368;48.698;9.116;2023-07-24T06:41:43;19.00;99.90
770;DHT22;368;48.698;9.116;2023-07-24T06:44:10;19.10;99.90
770;DHT22;368;48.698;9.116;2023-07-24T06:46:37;19.10;99.90
770;DHT22;368;48.698;9.116;2023-07-24T06:49:03;19.40;99.90
770;DHT22;368;48.698;9.116;2023-07-24T06:51:30;19.50;99.90
770;DHT22;368;48.698;9.116;2023-07-24T06:53:58;19.60;99.90
770;DHT22;368;48.698;9.116;2023-07-24T06:56:25;19.60;99.90
770;DHT22;368;48.698;9.116;2023-07-24T06:58:52;19.70;99.90
770;DHT22;368;48.698;9.116;2023-07-24T07:01:19;19.60;99.90
770;DHT22;368;48.698;9.116;2023-07-24T07:03:45;19.60;99.90
770;DHT22;368;48.698;9.116;2023-07-24T07:06:12;19.80;99.90
770;DHT22;368;48.698;9.116;2023-07-24T07:08:39;19.90;99.90
770;DHT22;368;48.698;9.116;2023-07-24T07:11:07;20.00;99.90
770;DHT22;368;48.698;9.116;2023-07-24T07:13:34;20.20;99.90
770;DHT22;368;48.698;9.116;2023-07-24T07:16:01;20.20;99.90
770;DHT22;368;48.698;9.116;2023-07-24T07:18:28;20.30;99.90
770;DHT22;368;48.698;9.116;2023-07-24T07:20:55;20.40;99.90
770;DHT22;368;48.698;9.116;2023-07-24T07:23:21;20.40;99.90
770;DHT22;368;48.698;9.116;2023-07-24T07:25:48;20.50;99.90
770;DHT22;368;48.698;9.116;2023-07-24T07:28:17;20.50;99.90
770;DHT22;368;48.698;9.116;2023-07-24T07:30:44;20.40;99.90
770;DHT22;368;48.698;9.116;2023-07-24T07:33:11;20.30;99.90
770;DHT22;368;48.698;9.116;2023-07-24T07:35:38;20.30;99.90
770;DHT22;368;48.698;9.116;2023-07-24T07:38:05;20.40;99.90
770;DHT22;368;48.698;9.116;2023-07-24T07:40:31;20.60;99.90
770;DHT22;368;48.698;9.116;2023-07-24T07:42:59;20.70;99.90
770;DHT22;368;48.698;9.116;2023-07-24T07:45:27;20.90;99.90
770;DHT22;368;48.698;9.116;2023-07-24T07:47:54;21.00;99.90
770;DHT22;368;48.698;9.116;2023-07-24T07:50:21;21.10;99.90
770;DHT22;368;48.698;9.116;2023-07-24T07:52:49;21.30;99.90
770;DHT22;368;48.698;9.116;2023-07-24T07:55:17;21.30;99.90
770;DHT22;368;48.698;9.116;2023-07-24T07:57:44;21.20;99.90
770;DHT22;368;48.698;9.116;2023-07-24T08:00:12;21.10;99.90
770;DHT22;368;48.698;9.116;2023-07-24T08:02:40;20.90;99.90
770;DHT22;368;48.698;9.116;2023-07-24T08:05:08;20.70;99.90
770;DHT22;368;48.698;9.116;2023-07-24T08:07:35;20.60;99.90
770;DHT22;368;48.698;9.116;2023-07-24T08:10:01;20.50;99.90
770;DHT22;368;48.698;9.116;2023-07-24T08:12:28;20.30;99.90
770;DHT22;368;48.698;9.116;2023-07-24T08:14:56;20.10;99.90
770;DHT22;368;48.698;9.116;2023-07-24T08:17:23;20.00;99.90
770;DHT22;368;48.698;9.116;2023-07-24T08:19:51;19.70;99.90
770;DHT22;368;48.698;9.116;2023-07-24T08:22:18;19.50;99.90
770;DHT22;368;48.698;9.116;2023-07-24T08:24:45;19.40;99.90
770;DHT22;368;48.698;9.116;2023-07-24T08:27:12;19.20;99.90
770;DHT22;368;48.698;9.116;2023-07-24T08:29:39;19.00;99.90
770;DHT22;368;48.698;9.116;2023-07-24T08:32:06;19.00;99.90
770;DHT22;368;48.698;9.116;2023-07-24T08:34:33;19.10;99.90
770;DHT22;368;48.698;9.116;2023-07-24T08:37:01;19.10;99.90
770;DHT22;368;48.698;9.116;2023-07-24T08:39:28;19.30;99.90
770;DHT22;368;48.698;9.116;2023-07-24T08:41:56;19.30;99.90
770;DHT22;368;48.698;9.116;2023-07-24T08:44:23;19.40;99.90
770;DHT22;368;48.698;9.116;2023-07-24T08:46:52;19.50;99.90
770;DHT22;368;48.698;9.116;2023-07-24T08:49:19;19.60;99.90
770;DHT22;368;48.698;9.116;2023-07-24T08:51:46;19.50;99.90
770;DHT22;368;48.698;9.116;2023-07-24T08:54:15;19.60;99.90
770;DHT22;368;48.698;9.116;2023-07-24T08:56:43;19.60;99.90
770;DHT22;368;48.698;9.116;2023-07-24T08:59:12;19.80;99.90
770;DHT22;368;48.698;9.116;2023-07-24T09:01:39;19.90;99.90
770;DHT22;368;48.698;9.116;2023-07-24T09:04:06;20.00;99.90
770;DHT22;368;48.698;9.116;2023-07-24T09:06:33;20.10;99.90
770;DHT22;368;48.698;9.116;2023-07-24T09:09:00;20.20;99.90
770;DHT22;368;48.698;9.116;2023-07-24T09:11:28;20.20;99.90
770;DHT22;368;48.698;9.116;2023-07-24T09:13:55;20.10;99.90
770;DHT22;368;48.698;9.116;2023-07-24T09:16:22;20.20;99.90
770;DHT22;368;48.698;9.116;2023-07-24T09:18:49;20.40;99.90
770;DHT22;368;48.698;9.116;2023-07-24T09:21:27;20.30;99.90
770;DHT22;368;48.698;9.116;2023-07-24T09:23:54;20.20;99.90
770;DHT22;368;48.698;9.116;2023-07-24T09:26:21;20.20;99.90
770;DHT22;368;48.698;9.116;2023-07-24T09:28:53;20.30;99.90
770;DHT22;368;48.698;9.116;2023-07-24T09:31:20;20.20;99.90
770;DHT22;368;48.698;9.116;2023-07-24T09:33:47;20.20;99.90
770;DHT22;368;48.698;9.116;2023-07-24T09:36:14;20.30;99.90
770;DHT22;368;48.698;9.116;2023-07-24T09:38:41;20.30;99.90
770;DHT22;368;48.698;9.116;2023-07-24T09:41:08;20.10;99.90
770;DHT22;368;48.698;9.116;2023-07-24T09:43:34;20.00;99.90
770;DHT22;368;48.698;9.116;2023-07-24T09:46:04;20.00;99.90
770;DHT22;368;48.698;9.116;2023-07-24T09:48:32;19.90;99.90
770;DHT22;368;48.698;9.116;2023-07-24T09:51:00;20.00;99.90
770;DHT22;368;48.698;9.116;2023-07-24T09:53:32;20.00;99.90
770;DHT22;368;48.698;9.116;2023-07-24T09:56:02;20.00;99.90
770;DHT22;368;48.698;9.116;2023-07-24T09:58:30;19.90;99.90
770;DHT22;368;48.698;9.116;2023-07-24T10:00:58;19.90;99.90
770;DHT22;368;48.698;9.116;2023-07-24T10:03:28;19.90;99.90
770;DHT22;368;48.698;9.116;2023-07-24T10:05:55;19.90;99.90
770;DHT22;368;48.698;9.116;2023-07-24T10:08:22;19.80;99.90
770;DHT22;368;48.698;9.116;2023-07-24T10:10:51;19.90;99.90
770;DHT22;368;48.698;9.116;2023-07-24T10:13:19;19.80;99.90
770;DHT22;368;48.698;9.116;2023-07-24T10:15:48;19.80;99.90
770;DHT22;368;48.698;9.116;2023-07-24T10:18:16;19.70;99.90
770;DHT22;368;48.698;9.116;2023-07-24T10:20:44;19.70;99.90
770;DHT22;368;48.698;9.116;2023-07-24T10:23:16;19.60;99.90
770;DHT22;368;48.698;9.116;2023-07-24T10:25:45;19.50;99.90
770;DHT22;368;48.698;9.116;2023-07-24T10:28:12;19.50;99.90
770;DHT22;368;48.698;9.116;2023-07-24T10:30:42;19.40;99.90
770;DHT22;368;48.698;9.116;2023-07-24T10:33:10;19.40;99.90
770;DHT22;368;48.698;9.116;2023-07-24T10:35:38;19.30;99.90
770;DHT22;368;48.698;9.116;2023-07-24T10:38:07;19.20;99.90
770;DHT22;368;48.698;9.116;2023-07-24T10:40:33;19.20;99.90
770;DHT22;368;48.698;9.116;2023-07-24T10:43:04;19.10;99.90
770;DHT22;368;48.698;9.116;2023-07-24T10:45:42;18.80;99.90
770;DHT22;368;48.698;9.116;2023-07-24T10:48:09;18.70;99.90
770;DHT22;368;48.698;9.116;2023-07-24T10:50:38;18.70;99.90
770;DHT22;368;48.698;9.116;2023-07-24T10:53:07;18.60;99.90
770;DHT22;368;48.698;9.116;2023-07-24T10:55:34;18.60;99.90
770;DHT22;368;48.698;9.116;2023-07-24T10:58:01;18.50;99.90
770;DHT22;368;48.698;9.116;2023-07-24T11:00:28;18.40;99.90
770;DHT22;368;48.698;9.116;2023-07-24T11:02:55;18.40;99.90
770;DHT22;368;48.698;9.116;2023-07-24T11:05:22;18.30;99.90
770;DHT22;368;48.698;9.116;2023-07-24T11:07:49;18.30;99.90
770;DHT22;368;48.698;9.116;2023-07-24T11:10:18;18.20;99.90
770;DHT22;368;48.698;9.116;2023-07-24T11:12:45;18.20;99.90
770;DHT22;368;48.698;9.116;2023-07-24T11:15:13;18.20;99.90
770;DHT22;368;48.698;9.116;2023-07-24T11:17:42;18.20;99.90
770;DHT22;368;48.698;9.116;2023-07-24T11:20:10;18.20;99.90
770;DHT22;368;48.698;9.116;2023-07-24T11:22:39;18.20;99.90
770;DHT22;368;48.698;9.116;2023-07-24T11:25:07;18.30;99.90
770;DHT22;368;48.698;9.116;2023-07-24T11:27:39;18.30;99.90
770;DHT22;368;48.698;9.116;2023-07-24T11:30:08;18.40;99.90
770;DHT22;368;48.698;9.116;2023-07-24T11:32:35;18.50;99.90
770;DHT22;368;48.698;9.116;2023-07-24T11:35:02;18.70;99.90
770;DHT22;368;48.698;9.116;2023-07-24T11:37:29;19.00;99.90
770;DHT22;368;48.698;9.116;2023-07-24T11:39:57;19.30;99.90
770;DHT22;368;48.698;9.116;2023-07-24T11:42:25;20.60;99.90
770;DHT22;368;48.698;9.116;2023-07-24T11:44:54;22.60;99.90
770;DHT22;368;48.698;9.116;2023-07-24T11:47:21;22.10;99.90
770;DHT22;368;48.698;9.116;2023-07-24T11:49:58;21.40;99.90
770;DHT22;368;48.698;9.116;2023-07-24T11:52:25;21.10;99.90
770;DHT22;368;48.698;9.116;2023-07-24T11:54:58;20.60;99.90
770;DHT22;368;48.698;9.116;2023-07-24T11:57:27;20.10;99.90
770;DHT22;368;48.698;9.116;2023-07-24T11:59:56;19.80;99.90
770;DHT22;368;48.698;9.116;2023-07-24T12:02:25;19.70;99.90
770;DHT22;368;48.698;9.116;2023-07-24T12:04:58;19.70;99.90
770;DHT22;368;48.698;9.116;2023-07-24T12:07:33;20.00;99.90
770;DHT22;368;48.698;9.116;2023-07-24T12:10:00;20.50;99.90
770;DHT22;368;48.698;9.116;2023-07-24T12:12:37;21.30;99.90
770;DHT22;368;48.698;9.116;2023-07-24T12:15:07;21.20;99.90
770;DHT22;368;48.698;9.116;2023-07-24T12:17:34;21.20;99.90
770;DHT22;368;48.698;9.116;2023-07-24T12:20:01;21.40;99.90
770;DHT22;368;48.698;9.116;2023-07-24T12:22:29;21.60;99.90
770;DHT22;368;48.698;9.116;2023-07-24T12:24:56;22.20;99.90
770;DHT22;368;48.698;9.116;2023-07-24T12:27:23;22.40;99.90
770;DHT22;368;48.698;9.116;2023-07-24T12:29:50;22.30;99.90
770;DHT22;368;48.698;9.116;2023-07-24T12:32:18;22.10;99.90
770;DHT22;368;48.698;9.116;2023-07-24T12:34:47;21.70;99.90
770;DHT22;368;48.698;9.116;2023-07-24T12:37:13;21.60;99.90
770;DHT22;368;48.698;9.116;2023-07-24T12:39:40;21.60;99.90
770;DHT22;368;48.698;9.116;2023-07-24T12:42:07;21.60;99.90
770;DHT22;368;48.698;9.116;2023-07-24T12:44:34;21.40;99.90
770;DHT22;368;48.698;9.116;2023-07-24T12:47:01;21.90;99.90
770;DHT22;368;48.698;9.116;2023-07-24T12:49:29;22.50;99.90
770;DHT22;368;48.698;9.116;2023-07-24T12:51:55;23.50;99.90
770;DHT22;368;48.698;9.116;2023-07-24T12:54:25;23.60;99.90
770;DHT22;368;48.698;9.116;2023-07-24T12:56:52;23.40;99.90
770;DHT22;368;48.698;9.116;2023-07-24T12:59:18;23.00;99.90
770;DHT22;368;48.698;9.116;2023-07-24T13:01:45;22.50;99.90
770;DHT22;368;48.698;9.116;2023-07-24T13:04:12;22.40;99.90
770;DHT22;368;48.698;9.116;2023-07-24T13:06:41;22.60;99.90
770;DHT22;368;48.698;9.116;2023-07-24T13:09:08;23.00;99.90
770;DHT22;368;48.698;9.116;2023-07-24T13:11:34;23.20;99.90
770;DHT22;368;48.698;9.116;2023-07-24T13:14:01;24.00;99.90
770;DHT22;368;48.698;9.116;2023-07-24T13:16:28;24.40;99.90
770;DHT22;368;48.698;9.116;2023-07-24T13:18:55;25.50;99.90
770;DHT22;368;48.698;9.116;2023-07-24T13:21:22;26.20;99.90
770;DHT22;368;48.698;9.116;2023-07-24T13:23:50;25.80;99.90
770;DHT22;368;48.698;9.116;2023-07-24T13:26:17;25.40;99.80
770;DHT22;368;48.698;9.116;2023-07-24T13:28:44;24.40;99.90
770;DHT22;368;48.698;9.116;2023-07-24T13:31:12;23.80;99.90
770;DHT22;368;48.698;9.116;2023-07-24T13:33:39;24.40;99.90
770;DHT22;368;48.698;9.116;2023-07-24T13:36:06;24.50;99.90
770;DHT22;368;48.698;9.116;2023-07-24T13:38:32;24.20;99.90
770;DHT22;368;48.698;9.116;2023-07-24T13:41:01;23.70;99.90
770;DHT22;368;48.698;9.116;2023-07-24T13:43:28;24.30;99.90
770;DHT22;368;48.698;9.116;2023-07-24T13:45:54;24.00;99.90
770;DHT22;368;48.698;9.116;2023-07-24T13:48:22;23.70;99.90
770;DHT22;368;48.698;9.116;2023-07-24T13:50:49;23.10;99.90
770;DHT22;368;48.698;9.116;2023-07-24T13:53:16;23.20;99.90
770;DHT22;368;48.698;9.116;2023-07-24T13:55:43;23.50;99.90
770;DHT22;368;48.698;9.116;2023-07-24T13:58:11;23.90;99.90
770;DHT22;368;48.698;9.116;2023-07-24T14:00:38;24.80;99.90
770;DHT22;368;48.698;9.116;2023-07-24T14:03:05;25.10;99.70
770;DHT22;368;48.698;9.116;2023-07-24T14:05:32;24.90;99.60
770;DHT22;368;48.698;9.116;2023-07-24T14:08:00;24.40;99.70
770;DHT22;368;48.698;9.116;2023-07-24T14:10:26;24.60;99.90
770;DHT22;368;48.698;9.116;2023-07-24T14:12:53;25.80;97.90
770;DHT22;368;48.698;9.116;2023-07-24T14:15:24;26.30;96.50
770;DHT22;368;48.698;9.116;2023-07-24T14:17:51;27.50;95.50
770;DHT22;368;48.698;9.116;2023-07-24T14:20:18;27.10;95.00
770;DHT22;368;48.698;9.116;2023-07-24T14:22:45;25.90;96.90
770;DHT22;368;48.698;9.116;2023-07-24T14:25:12;25.40;97.10
770;DHT22;368;48.698;9.116;2023-07-24T14:27:39;25.50;97.00
770;DHT22;368;48.698;9.116;2023-07-24T14:30:08;25.60;97.20
770;DHT22;368;48.698;9.116;2023-07-24T14:32:36;24.80;97.60
770;DHT22;368;48.698;9.116;2023-07-24T14:35:04;24.30;99.40
770;DHT22;368;48.698;9.116;2023-07-24T14:37:30;24.30;99.90
770;DHT22;368;48.698;9.116;2023-07-24T14:39:57;23.90;98.60
770;DHT22;368;48.698;9.116;2023-07-24T14:42:24;23.50;98.90
770;DHT22;368;48.698;9.116;2023-07-24T14:44:51;23.30;98.20
770;DHT22;368;48.698;9.116;2023-07-24T14:47:18;23.20;98.50
770;DHT22;368;48.698;9.116;2023-07-24T14:49:46;23.50;98.80
770;DHT22;368;48.698;9.116;2023-07-24T14:52:12;24.10;97.80
770;DHT22;368;48.698;9.116;2023-07-24T14:54:39;24.10;97.60
770;DHT22;368;48.698;9.116;2023-07-24T14:57:06;24.00;97.40
770;DHT22;368;48.698;9.116;2023-07-24T14:59:35;23.50;98.70
770;DHT22;368;48.698;9.116;2023-07-24T15:02:02;23.20;99.50
770;DHT22;368;48.698;9.116;2023-07-24T15:04:29;23.30;99.20
770;DHT22;368;48.698;9.116;2023-07-24T15:06:57;23.40;99.40
770;DHT22;368;48.698;9.116;2023-07-24T15:09:23;23.40;99.50
770;DHT22;368;48.698;9.116;2023-07-24T15:11:50;23.30;99.50
770;DHT22;368;48.698;9.116;2023-07-24T15:14:17;23.30;99.80
770;DHT22;368;48.698;9.116;2023-07-24T15:16:44;23.20;99.90
770;DHT22;368;48.698;9.116;2023-07-24T15:19:11;23.10;99.90
770;DHT22;368;48.698;9.116;2023-07-24T15:21:38;23.20;99.90
770;DHT22;368;48.698;9.116;2023-07-24T15:24:06;23.20;99.70
770;DHT22;368;48.698;9.116;2023-07-24T15:26:33;22.80;99.90
770;DHT22;368;48.698;9.116;2023-07-24T15:29:00;22.40;99.90
770;DHT22;368;48.698;9.116;2023-07-24T15:31:27;22.20;99.90
770;DHT22;368;48.698;9.116;2023-07-24T15:33:56;22.10;99.90
770;DHT22;368;48.698;9.116;2023-07-24T15:36:23;21.80;99.90
770;DHT22;368;48.698;9.116;2023-07-24T15:38:49;21.60;99.90
770;DHT22;368;48.698;9.116;2023-07-24T15:41:17;21.40;99.90
770;DHT22;368;48.698;9.116;2023-07-24T15:43:44;21.20;99.90
770;DHT22;368;48.698;9.116;2023-07-24T15:46:11;21.20;99.90
770;DHT22;368;48.698;9.116;2023-07-24T15:48:38;21.30;99.90
770;DHT22;368;48.698;9.116;2023-07-24T15:51:05;21.30;99.90
770;DHT22;368;48.698;9.116;2023-07-24T15:53:31;21.30;99.90
770;DHT22;368;48.698;9.116;2023-07-24T15:55:58;21.40;99.90
770;DHT22;368;48.698;9.116;2023-07-24T15:58:26;21.60;99.90
770;DHT22;368;48.698;9.116;2023-07-24T16:00:56;21.80;99.90
770;DHT22;368;48.698;9.116;2023-07-24T16:03:23;21.90;99.90
770;DHT22;368;48.698;9.116;2023-07-24T16:05:52;21.90;99.90
770;DHT22;368;48.698;9.116;2023-07-24T16:08:20;22.00;99.90
770;DHT22;368;48.698;9.116;2023-07-24T16:10:47;22.00;99.90
770;DHT22;368;48.698;9.116;2023-07-24T16:13:14;21.80;99.90
770;DHT22;368;48.698;9.116;2023-07-24T16:15:42;21.60;99.90
770;DHT22;368;48.698;9.116;2023-07-24T16:18:09;21.60;99.90
770;DHT22;368;48.698;9.116;2023-07-24T16:20:35;21.50;99.90
770;DHT22;368;48.698;9.116;2023-07-24T16:23:02;21.30;99.90
770;DHT22;368;48.698;9.116;2023-07-24T16:25:29;21.20;99.90
770;DHT22;368;48.698;9.116;2023-07-24T16:27:56;21.10;99.90
770;DHT22;368;48.698;9.116;2023-07-24T16:30:23;21.10;99.90
770;DHT22;368;48.698;9.116;2023-07-24T16:32:51;21.10;99.90
770;DHT22;368;48.698;9.116;2023-07-24T16:35:18;21.00;99.90